Time;durP1;ratioP1;P1;durP2;ratioP2;P2;SDS_P1;SDS_P2;PMS_P1;PMS_P2;Temp;Humidity;BMP_temperature;BMP_pressure;BME280_temperature;BME280_humidity;BME280_pressure;Samples;Min_cycle;Max_cycle;Signal;HPM_P1;HPM_P2
2022/02/02 00:00:18;;;;;;;;;;;;;;;-5.06;75.55;98442.97;1640430;86;21158;-72
2022/02/02 00:02:50;;;;;;;;;;;;;;;-5.07;75.63;98444.03;1640552;86;20140;-69
2022/02/02 00:05:31;;;;;;;;;;;;;;;-5.09;75.62;98448.28;1640434;86;20130;-69
2022/02/02 00:08:04;;;;;;;;;;;;;;;-5.10;75.72;98440.49;1640824;86;20140;-69
2022/02/02 00:13:09;;;;;;;;;;;;;;;-5.12;75.95;98438.59;1640253;87;21758;-71
2022/02/02 00:20:52;;;;;;;;;;;;;;;-5.16;76.09;98447.63;1639954;87;20194;-70
2022/02/02 00:23:14;;;;;;;;;;;;;;;-5.19;76.14;98448.63;1642344;86;20156;-70
2022/02/02 00:25:43;;;;;;;;;;;;;;;-5.22;76.19;98440.59;1613550;87;21813;-69
2022/02/02 00:28:04;;;;;;;;;;;;;;;-5.25;76.27;98437.58;1641499;86;20204;-70
2022/02/02 00:30:34;;;;;;;;;;;;;;;-5.29;76.32;98435.09;1640378;86;20141;-70
2022/02/02 00:33:21;;;;;;;;;;;;;;;-5.34;76.44;98432.62;1638740;86;20133;-70
2022/02/02 00:35:45;;;;;;;;;;;;;;;-5.36;76.48;98427.22;1636152;87;20184;-69
2022/02/02 00:38:09;;;;;;;;;;;;;;;-5.42;76.54;98423.64;1636746;87;23240;-70
2022/02/02 00:40:35;;;;;;;;;;;;;;;-5.44;76.57;98420.92;1637044;87;20139;-70
2022/02/02 00:43:01;;;;;;;;;;;;;;;-5.47;76.57;98422.73;1637462;87;20120;-71
2022/02/02 00:45:32;;;;;;;;;;;;;;;-5.52;76.61;98414.09;1637343;87;20475;-71
2022/02/02 00:47:55;;;;;;;;;;;;;;;-5.54;76.59;98408.70;1636653;87;20148;-70
2022/02/02 00:50:24;;;;;;;;;;;;;;;-5.58;76.62;98404.88;1637075;87;21603;-70
2022/02/02 00:52:52;;;;;;;;;;;;;;;-5.61;76.65;98404.83;1637386;87;20477;-70
2022/02/02 00:55:19;;;;;;;;;;;;;;;-5.65;76.66;98397.81;1637205;87;20132;-70
2022/02/02 00:57:45;;;;;;;;;;;;;;;-5.67;76.72;98398.58;1637277;87;20179;-70
2022/02/02 01:00:13;;;;;;;;;;;;;;;-5.69;76.69;98391.32;1637146;87;20183;-70
2022/02/02 01:02:39;;;;;;;;;;;;;;;-5.71;76.73;98389.94;1637123;87;21196;-70
2022/02/02 01:05:06;;;;;;;;;;;;;;;-5.73;76.78;98382.67;1637063;87;20171;-70
2022/02/02 01:10:26;;;;;;;;;;;;;;;-5.76;76.88;98365.78;1637120;87;20204;-69
2022/02/02 01:12:52;;;;;;;;;;;;;;;-5.77;76.79;98366.83;1635480;87;20188;-69
2022/02/02 01:28:23;;;;;;;;;;;;;;;-5.87;76.79;98348.77;1631500;87;21946;-70
2022/02/02 01:30:50;;;;;;;;;;;;;;;-5.89;76.83;98348.75;1637202;87;20176;-70
2022/02/02 01:33:16;;;;;;;;;;;;;;;-5.91;76.87;98346.84;1615540;87;20185;-70
2022/02/02 01:35:43;;;;;;;;;;;;;;;-5.93;76.87;98349.75;1628593;88;20180;-70
2022/02/02 01:38:10;;;;;;;;;;;;;;;-5.95;76.89;98345.17;1628769;88;20185;-70
2022/02/02 01:40:42;;;;;;;;;;;;;;;-5.97;76.91;98343.78;1628615;88;21134;-71
2022/02/02 01:43:10;;;;;;;;;;;;;;;-6.00;76.90;98337.87;1628216;88;20155;-71
2022/02/02 01:45:38;;;;;;;;;;;;;;;-6.03;76.90;98337.53;1628123;88;20217;-73
2022/02/02 01:48:14;;;;;;;;;;;;;;;-6.06;76.92;98338.01;1628164;88;20143;-71
2022/02/02 01:51:42;;;;;;;;;;;;;;;-6.07;76.89;98339.06;1626418;88;20176;-72
2022/02/02 01:55:42;;;;;;;;;;;;;;;-6.11;77.00;98325.36;1628568;88;20096;-71
2022/02/02 02:00:41;;;;;;;;;;;;;;;-6.13;77.10;98328.80;1628509;88;20185;-71
2022/02/02 02:03:08;;;;;;;;;;;;;;;-6.16;77.07;98327.13;1628499;88;20404;-71
2022/02/02 02:05:34;;;;;;;;;;;;;;;-6.16;78.28;98317.25;1628446;88;21144;-71
2022/02/02 02:08:01;;;;;;;;;;;;;;;-6.17;77.74;98312.14;1628525;88;20181;-71
2022/02/02 02:10:27;;;;;;;;;;;;;;;-6.21;77.50;98310.99;1628576;88;20139;-72
2022/02/02 02:13:00;;;;;;;;;;;;;;;-6.25;77.48;98314.66;1628505;88;20156;-70
2022/02/02 02:15:27;;;;;;;;;;;;;;;-6.30;77.48;98307.08;1627891;88;20195;-70
2022/02/02 02:17:51;;;;;;;;;;;;;;;-6.33;77.46;98305.16;1627990;88;21237;-70
2022/02/02 02:20:17;;;;;;;;;;;;;;;-6.35;77.46;98305.92;1628763;88;20466;-70
2022/02/02 02:22:44;;;;;;;;;;;;;;;-6.39;77.50;98302.14;1628601;88;20148;-70
2022/02/02 02:25:23;;;;;;;;;;;;;;;-6.40;77.62;98298.37;1628628;88;20172;-70
2022/02/02 02:27:50;;;;;;;;;;;;;;;-6.42;77.51;98296.45;1628224;88;20176;-70
2022/02/02 02:33:14;;;;;;;;;;;;;;;-6.49;77.58;98297.11;1624070;88;20216;-70
2022/02/02 02:38:22;;;;;;;;;;;;;;;-6.56;77.82;98297.25;1629868;88;20491;-69
2022/02/02 02:56:31;;;;;;;;;;;;;;;-7.09;79.71;98272.11;1639890;87;21199;-69
2022/02/02 02:58:59;;;;;;;;;;;;;;;-7.10;79.80;98271.30;1639707;87;20151;-70
2022/02/02 03:50:43;;;;;;;;;;;;;;;-7.08;81.82;98252.39;1629472;88;21995;-72
2022/02/02 03:55:26;;;;;;;;;;;;;;;-7.09;82.01;98248.11;1601879;88;20135;-70
2022/02/02 04:06:05;;;;;;;;;;;;;;;-7.15;82.33;98259.70;1672425;85;20484;-70
2022/02/02 04:08:27;;;;;;;;;;;;;;;-7.16;82.49;98256.75;1671278;85;20127;-70
2022/02/02 04:10:54;;;;;;;;;;;;;;;-7.15;82.62;98257.04;1664193;85;20169;-69
2022/02/02 04:54:14;;;;;;;;;;;;;;;-7.10;83.96;98237.95;1640000;87;20179;-71
2022/02/02 05:06:56;;;;;;;;;;;;;;;-7.05;84.38;98245.27;1640108;87;20506;-73
2022/02/02 05:44:31;;;;;;;;;;;;;;;-6.50;82.52;98256.78;1660462;86;20198;-71
2022/02/02 05:52:14;;;;;;;;;;;;;;;-6.42;81.95;98249.20;1660645;86;20106;-73
2022/02/02 05:54:41;;;;;;;;;;;;;;;-6.37;81.92;98259.17;1660475;85;20214;-73
2022/02/02 05:57:12;;;;;;;;;;;;;;;-6.33;81.80;98262.96;1660705;86;20444;-72
2022/02/02 05:59:39;;;;;;;;;;;;;;;-6.32;81.64;98264.06;1660566;86;20327;-71
2022/02/02 06:02:06;;;;;;;;;;;;;;;-6.29;81.52;98265.44;1634302;86;21234;-72
2022/02/02 06:04:32;;;;;;;;;;;;;;;-6.27;81.36;98259.34;1660562;85;20192;-72
2022/02/02 06:07:00;;;;;;;;;;;;;;;-6.24;81.32;98258.86;1660754;86;20194;-72
2022/02/02 06:09:35;;;;;;;;;;;;;;;-6.20;81.27;98258.67;1662680;86;20178;-70
2022/02/02 06:11:55;;;;;;;;;;;;;;;-6.15;81.17;98261.44;1632250;88;20179;-71
2022/02/02 06:14:25;;;;;;;;;;;;;;;-6.10;81.11;98256.71;1662617;86;21259;-71
2022/02/02 06:16:54;;;;;;;;;;;;;;;-6.04;80.89;98263.77;1633918;88;20131;-72
2022/02/02 06:19:23;;;;;;;;;;;;;;;-6.00;80.64;98255.56;1645631;86;20442;-73
2022/02/02 06:21:52;;;;;;;;;;;;;;;-5.94;80.68;98257.27;1645790;87;20218;-73
2022/02/02 06:24:20;;;;;;;;;;;;;;;-5.89;80.78;98253.35;1645473;86;20233;-72
2022/02/02 06:26:47;;;;;;;;;;;;;;;-5.83;80.53;98260.38;1645686;86;21123;-74
2022/02/02 06:29:13;;;;;;;;;;;;;;;-5.78;80.33;98256.45;1623524;86;20167;-73
2022/02/02 06:31:40;;;;;;;;;;;;;;;-5.71;80.11;98257.08;1688625;84;20158;-73
2022/02/02 06:34:10;;;;;;;;;;;;;;;-5.64;80.03;98255.58;1634176;87;20149;-73
2022/02/02 06:36:38;;;;;;;;;;;;;;;-5.58;79.81;98251.12;1642193;86;20154;-72
2022/02/02 06:39:05;;;;;;;;;;;;;;;-5.51;79.60;98257.94;1606458;88;21061;-71
2022/02/02 06:41:31;;;;;;;;;;;;;;;-5.44;79.40;98258.59;1635463;87;20184;-72
2022/02/02 06:43:58;;;;;;;;;;;;;;;-5.35;79.33;98252.30;1635502;87;20224;-71
2022/02/02 06:46:30;;;;;;;;;;;;;;;-5.25;78.96;98251.12;1635638;87;20180;-71
2022/02/02 06:48:54;;;;;;;;;;;;;;;-5.17;78.66;98247.19;1619588;86;20174;-71
2022/02/02 06:51:30;;;;;;;;;;;;;;;-5.09;78.85;98253.45;1605022;87;20994;-68
2022/02/02 06:53:57;;;;;;;;;;;;;;;-5.00;78.20;98243.95;1632067;87;20182;-70
2022/02/02 06:56:32;;;;;;;;;;;;;;;-4.87;78.26;98231.55;1589182;88;20205;-77
2022/02/02 07:07:48;;;;;;;;;;;;;;;-4.28;75.67;98242.94;1628607;88;20201;-69
2022/02/02 07:13:07;;;;;;;;;;;;;;;-4.25;75.33;98239.23;1627285;88;20224;-67
2022/02/02 07:15:49;;;;;;;;;;;;;;;-4.16;75.39;98234.23;1650586;86;20205;-67
2022/02/02 07:20:35;;;;;;;;;;;;;;;-4.10;74.65;98246.63;1665723;86;20172;-69
2022/02/02 07:25:49;;;;;;;;;;;;;;;-3.95;74.44;98236.55;1665589;86;20145;-69
2022/02/02 07:33:25;;;;;;;;;;;;;;;-3.84;74.49;98222.19;1644894;86;20215;-69
2022/02/02 07:36:07;;;;;;;;;;;;;;;-3.75;74.29;98224.67;1637590;85;20494;-67
2022/02/02 07:38:49;;;;;;;;;;;;;;;-3.67;74.25;98221.53;1637279;87;20189;-65
2022/02/02 07:41:19;;;;;;;;;;;;;;;-3.56;74.57;98222.42;1638228;87;20506;-65
2022/02/02 07:43:46;;;;;;;;;;;;;;;-3.42;74.34;98212.31;1637646;87;21909;-66
2022/02/02 07:46:14;;;;;;;;;;;;;;;-3.24;74.22;98207.59;1611930;87;20192;-68
2022/02/02 07:48:42;;;;;;;;;;;;;;;-3.02;74.15;98212.30;1637957;87;20196;-68
2022/02/02 07:51:09;;;;;;;;;;;;;;;-2.80;73.46;98211.58;1637825;87;20450;-69
2022/02/02 07:53:47;;;;;;;;;;;;;;;-2.64;72.38;98210.31;1637925;87;20251;-68
2022/02/02 07:56:14;;;;;;;;;;;;;;;-2.60;72.42;98205.48;1637488;87;21226;-70
2022/02/02 07:58:46;;;;;;;;;;;;;;;-2.67;72.39;98211.64;1637554;87;20167;-71
2022/02/02 08:01:12;;;;;;;;;;;;;;;-2.71;73.07;98224.78;1637750;87;20211;-73
2022/02/02 08:03:42;;;;;;;;;;;;;;;-2.72;73.15;98218.33;1637882;87;20514;-71
2022/02/02 08:06:08;;;;;;;;;;;;;;;-2.73;73.70;98221.55;1637567;87;20203;-70
2022/02/02 08:08:37;;;;;;;;;;;;;;;-2.70;73.82;98225.59;1638008;87;21934;-70
2022/02/02 08:11:09;;;;;;;;;;;;;;;-2.69;74.27;98218.62;1637955;87;20504;-71
2022/02/02 08:13:40;;;;;;;;;;;;;;;-2.61;74.55;98209.78;1638075;87;20155;-73
2022/02/02 08:16:09;;;;;;;;;;;;;;;-2.50;74.93;98216.28;1637830;87;20501;-69
2022/02/02 08:18:37;;;;;;;;;;;;;;;-2.32;75.36;98219.56;1612528;87;20240;-75
2022/02/02 08:21:03;;;;;;;;;;;;;;;-2.18;75.24;98216.08;1637909;87;21175;-73
2022/02/02 08:23:30;;;;;;;;;;;;;;;-2.06;75.21;98213.95;1637748;86;20135;-67
2022/02/02 08:25:58;;;;;;;;;;;;;;;-1.97;75.31;98209.40;1637718;87;20211;-66
2022/02/02 08:28:24;;;;;;;;;;;;;;;-1.89;75.53;98212.91;1637978;87;20236;-70
2022/02/02 08:30:51;;;;;;;;;;;;;;;-1.79;75.69;98207.00;1638041;87;20229;-74
2022/02/02 08:33:26;;;;;;;;;;;;;;;-1.69;75.54;98204.83;1639813;86;21109;-72
2022/02/02 08:35:54;;;;;;;;;;;;;;;-1.61;75.55;98209.67;1624376;86;20561;-75
2022/02/02 08:40:58;;;;;;;;;;;;;;;-1.35;76.02;98201.05;1639572;87;20559;-71
2022/02/02 08:43:30;;;;;;;;;;;;;;;-1.22;75.64;98202.39;1654449;85;20190;-72
2022/02/02 08:45:50;;;;;;;;;;;;;;;-1.11;75.25;98200.72;1654703;85;21510;-70
2022/02/02 08:48:22;;;;;;;;;;;;;;;-1.02;75.06;98193.70;1653754;86;20161;-74
2022/02/02 08:50:50;;;;;;;;;;;;;;;-0.94;75.23;98188.29;1627064;86;20451;-72
2022/02/02 08:56:00;;;;;;;;;;;;;;;-0.77;74.90;98188.78;1654031;86;20209;-71
2022/02/02 08:58:58;;;;;;;;;;;;;;;-0.65;75.14;98187.12;1655687;85;21869;-71
2022/02/02 09:00:53;;;;;;;;;;;;;;;-0.53;74.57;98180.03;1654089;85;20482;-75
2022/02/02 09:06:03;;;;;;;;;;;;;;;-0.41;73.59;98175.12;1653804;86;20202;-68
2022/02/02 09:08:32;;;;;;;;;;;;;;;-0.38;72.88;98171.33;1648205;86;20186;-66
2022/02/02 09:35:24;;;;;;;;;;;;;;;0.97;69.77;98135.89;1653974;86;20155;-71
2022/02/02 09:37:50;;;;;;;;;;;;;;;1.24;68.05;98127.17;1653508;86;21140;-71
2022/02/02 09:43:01;;;;;;;;;;;;;;;1.61;66.42;98117.50;1656822;86;20178;-68
2022/02/02 09:45:28;;;;;;;;;;;;;;;1.86;66.59;98123.88;1656707;86;20158;-69
2022/02/02 09:48:06;;;;;;;;;;;;;;;2.03;64.85;98111.72;1656528;86;20475;-68
2022/02/02 09:50:39;;;;;;;;;;;;;;;2.08;64.91;98110.29;1657955;85;21086;-70
2022/02/02 09:53:02;;;;;;;;;;;;;;;2.08;64.60;98107.03;1632764;86;20457;-68
2022/02/02 09:55:57;;;;;;;;;;;;;;;2.02;64.21;98097.38;1631958;86;20150;-67
2022/02/02 10:15:26;;;;;;;;;;;;;;;1.33;66.67;98079.47;1625754;86;20467;-67
2022/02/02 10:18:02;;;;;;;;;;;;;;;1.35;67.24;98080.53;1652231;86;21787;-68
2022/02/02 10:20:29;;;;;;;;;;;;;;;1.38;67.50;98083.20;1663326;85;20657;-66
2022/02/02 10:22:58;;;;;;;;;;;;;;;1.36;67.32;98069.17;1640598;86;20135;-67
2022/02/02 10:25:38;;;;;;;;;;;;;;;1.24;67.62;98067.70;1668946;85;20181;-68
2022/02/02 10:28:13;;;;;;;;;;;;;;;1.18;68.60;98069.41;1632716;86;20477;-70
2022/02/02 10:30:43;;;;;;;;;;;;;;;1.19;68.86;98066.96;1645625;86;21118;-68
2022/02/02 10:33:20;;;;;;;;;;;;;;;1.22;68.92;98071.24;1642839;86;20102;-69
2022/02/02 10:35:48;;;;;;;;;;;;;;;1.18;68.87;98068.05;1648151;86;20134;-70
2022/02/02 10:38:17;;;;;;;;;;;;;;;1.08;69.46;98062.81;1638705;86;20174;-68
2022/02/02 10:41:01;;;;;;;;;;;;;;;1.03;69.99;98072.33;1666128;86;20174;-65
2022/02/02 10:43:31;;;;;;;;;;;;;;;0.97;70.31;98058.08;1667965;85;21117;-67
2022/02/02 10:45:55;;;;;;;;;;;;;;;1.02;70.75;98055.31;1637262;87;20411;-67
2022/02/02 10:48:35;;;;;;;;;;;;;;;1.20;70.29;98055.05;1668772;85;20105;-69
2022/02/02 10:51:04;;;;;;;;;;;;;;;1.24;70.12;98051.48;1667057;84;20469;-73
2022/02/02 10:56:18;;;;;;;;;;;;;;;1.31;70.04;98034.34;1614424;87;21109;-71
2022/02/02 11:01:23;;;;;;;;;;;;;;;1.16;70.52;98035.11;1612712;87;20212;-72
2022/02/02 11:06:41;;;;;;;;;;;;;;;1.23;71.25;98029.59;1613116;89;20206;-71
2022/02/02 11:09:10;;;;;;;;;;;;;;;1.31;70.91;98020.03;1587699;89;21876;-71
2022/02/02 11:11:39;;;;;;;;;;;;;;;1.26;70.78;98024.95;1612967;87;20193;-70
2022/02/02 11:14:09;;;;;;;;;;;;;;;1.26;71.21;98024.16;1612648;88;20166;-69
2022/02/02 11:16:36;;;;;;;;;;;;;;;1.28;71.02;98011.95;1613176;87;20399;-69
2022/02/02 11:19:03;;;;;;;;;;;;;;;1.28;71.28;98017.36;1612593;89;20471;-69
2022/02/02 11:21:31;;;;;;;;;;;;;;;1.33;71.65;98015.94;1587816;89;21841;-69
2022/02/02 11:23:59;;;;;;;;;;;;;;;1.41;71.27;98015.83;1614711;86;20182;-70
2022/02/02 11:26:46;;;;;;;;;;;;;;;1.47;71.62;98012.50;1625365;87;20154;-69
2022/02/02 11:29:36;;;;;;;;;;;;;;;1.51;71.07;98012.97;1612641;87;20182;-68
2022/02/02 11:32:05;;;;;;;;;;;;;;;1.50;71.17;98010.02;1618579;87;20182;-70
2022/02/02 11:34:31;;;;;;;;;;;;;;;1.54;71.31;98007.52;1660595;86;21192;-71
2022/02/02 11:37:00;;;;;;;;;;;;;;;1.57;71.37;98004.23;1643657;87;20130;-70
2022/02/02 11:39:44;;;;;;;;;;;;;;;1.57;71.39;98010.45;1645257;87;20171;-70
2022/02/02 11:42:19;;;;;;;;;;;;;;;;;;1644948;87;20171;-70
2022/02/02 11:44:54;;;;;;;;;;;;;;;1.63;71.83;98005.76;1645052;87;20210;-68
2022/02/02 11:47:22;;;;;;;;;;;;;;;1.65;71.82;98006.27;1645086;87;21146;-70
2022/02/02 11:50:00;;;;;;;;;;;;;;;1.58;71.82;98012.60;1635194;86;20154;-70
2022/02/02 11:52:49;;;;;;;;;;;;;;;1.51;72.29;98004.05;1634422;88;20131;-71
2022/02/02 11:55:22;;;;;;;;;;;;;;;1.42;72.39;98001.20;1620036;87;20147;-70
2022/02/02 11:58:02;;;;;;;;;;;;;;;1.34;72.90;98008.62;1635489;86;20179;-70
2022/02/02 12:00:39;;;;;;;;;;;;;;;1.24;73.44;98005.52;1608971;87;21198;-69
2022/02/02 12:08:16;;;;;;;;;;;;;;;1.29;74.10;98014.11;1651639;87;20219;-67
2022/02/02 12:20:44;;;;;;;;;;;;;;;;;;;;;
2022/02/02 12:57:50;;;;;;;;;;;;;;;1.25;76.68;98022.00;1647287;87;20986;-69
2022/02/02 13:00:21;;;;;;;;;;;;;;;1.22;76.50;98022.58;1648082;85;20157;-69
2022/02/02 13:02:45;;;;;;;;;;;;;;;1.15;76.72;98024.06;1648060;85;20177;-69
2022/02/02 13:05:11;;;;;;;;;;;;;;;1.12;77.13;98032.76;1647281;87;20150;-69
2022/02/02 13:07:40;;;;;;;;;;;;;;;1.10;77.25;98035.75;1647137;87;21150;-70
2022/02/02 13:10:09;;;;;;;;;;;;;;;1.06;77.31;98040.13;1647075;87;20992;-70
2022/02/02 13:13:01;;;;;;;;;;;;;;;1.03;77.80;98046.66;1647286;87;20114;-69
2022/02/02 13:18:22;;;;;;;;;;;;;;;0.95;78.42;98048.91;1632787;87;20226;-72
2022/02/02 13:23:59;;;;;;;;;;;;;;;1.00;78.88;98048.05;1620738;88;20104;-74
2022/02/02 13:26:35;;;;;;;;;;;;;;;1.00;79.00;98045.34;1621524;87;20117;-72
2022/02/02 13:29:14;;;;;;;;;;;;;;;1.01;79.16;98060.46;1621163;87;20608;-72
2022/02/02 13:51:05;;;;;;;;;;;;;;;0.89;80.36;98062.77;1646543;86;20151;-72
2022/02/02 14:04:35;;;;;;;;;;;;;;;0.70;81.79;98066.77;1626929;87;20181;-70
2022/02/02 14:07:11;;;;;;;;;;;;;;;0.66;82.23;98063.84;1648826;87;20186;-70
2022/02/02 14:09:32;;;;;;;;;;;;;;;0.62;82.28;98060.09;1653635;84;21597;-71
2022/02/02 14:26:05;;;;;;;;;;;;;;;0.45;84.12;98065.17;1650897;85;20173;-70
2022/02/02 14:33:32;;;;;;;;;;;;;;;0.44;84.64;98064.91;1650833;86;20145;-70
2022/02/02 14:36:04;;;;;;;;;;;;;;;0.44;84.80;98058.70;1651032;87;20137;-74
2022/02/02 14:46:28;;;;;;;;;;;;;;;0.32;86.01;98061.25;1643977;87;20193;-71
2022/02/02 14:48:59;;;;;;;;;;;;;;;0.32;85.98;98065.84;1644518;85;20599;-72
2022/02/02 14:51:38;;;;;;;;;;;;;;;0.32;86.48;98067.19;1628109;85;20190;-72
2022/02/02 15:24:05;;;;;;;;;;;;;;;0.02;88.75;98087.16;1654656;86;20224;-72
2022/02/02 15:29:13;;;;;;;;;;;;;;;0.02;89.09;98093.90;1635391;86;20199;-73
2022/02/02 15:31:27;;;;;;;;;;;;;;;0.02;89.43;98087.70;1650541;86;20520;-74
2022/02/02 15:33:56;;;;;;;;;;;;;;;0.01;89.65;98096.33;1635246;85;21801;-74
2022/02/02 15:38:56;;;;;;;;;;;;;;;0.02;90.29;98101.98;1656285;85;20181;-75
2022/02/02 15:41:31;;;;;;;;;;;;;;;0.04;90.12;98099.02;1656102;86;20142;-73
2022/02/02 15:55:35;;;;;;;;;;;;;;;0.06;90.52;98108.98;1615851;87;20611;-72
2022/02/02 16:02:44;;;;;;;;;;;;;;;0.06;90.88;98115.73;1656163;86;20121;-75
2022/02/02 16:04:55;;;;;;;;;;;;;;;0.06;91.00;98110.33;1658646;85;20175;-74
2022/02/02 16:07:26;;;;;;;;;;;;;;;0.06;91.11;98106.28;1655976;86;20938;-75
2022/02/02 16:09:54;;;;;;;;;;;;;;;0.06;91.20;98112.48;1656464;85;20185;-77
2022/02/02 16:12:23;;;;;;;;;;;;;;;0.07;91.16;98121.38;1656288;85;21073;-73
2022/02/02 16:14:52;;;;;;;;;;;;;;;0.07;91.25;98119.49;1656022;85;20469;-73
2022/02/02 16:17:32;;;;;;;;;;;;;;;0.07;91.29;98117.34;1654995;85;20190;-76
2022/02/02 16:24:45;;;;;;;;;;;;;;;0.07;91.38;98122.19;1652182;86;20476;-73
2022/02/02 16:25:09;;;;;;;;;;;;;;;0.09;91.47;98130.00;1615395;89;21557;-74
2022/02/02 16:35:57;;;;;;;;;;;;;;;0.11;91.69;98139.97;1574535;88;20208;-75
2022/02/02 16:38:20;;;;;;;;;;;;;;;0.13;91.68;98140.50;1629610;86;20458;-75
2022/02/02 16:40:49;;;;;;;;;;;;;;;0.12;91.76;98138.34;1642219;86;20082;-74
2022/02/02 16:43:13;;;;;;;;;;;;;;;0.13;91.79;98141.30;1655441;86;20154;-73
2022/02/02 16:45:42;;;;;;;;;;;;;;;0.13;92.00;98139.95;1655498;86;20483;-75
2022/02/02 16:48:09;;;;;;;;;;;;;;;0.12;92.06;98138.34;1626298;86;20262;-68
2022/02/02 16:50:40;;;;;;;;;;;;;;;0.11;92.12;98138.08;1655287;86;21166;-73
2022/02/02 16:53:22;;;;;;;;;;;;;;;0.11;92.15;98139.97;1651038;86;20198;-75
2022/02/02 17:33:14;;;;;;;;;;;;;;;0.09;92.53;98144.30;1613176;87;20310;-69
2022/02/02 17:35:31;;;;;;;;;;;;;;;0.08;92.64;98149.44;1637620;87;20438;-71
2022/02/02 17:38:02;;;;;;;;;;;;;;;0.07;92.77;98149.17;1643181;87;20211;-72
2022/02/02 17:43:09;;;;;;;;;;;;;;;0.05;93.00;98141.09;1627902;88;21139;-71
2022/02/02 17:56:39;;;;;;;;;;;;;;;-0.09;94.47;98140.41;1614159;88;21515;-76
2022/02/02 18:12:45;;;;;;;;;;;;;;;-0.11;95.29;98147.98;1608487;88;20173;-77
2022/02/02 18:20:33;;;;;;;;;;;;;;;-0.09;95.51;98141.76;1616901;88;20187;-76
2022/02/02 18:23:08;;;;;;;;;;;;;;;-0.10;95.54;98133.41;1596240;88;21160;-73
2022/02/02 18:25:36;;;;;;;;;;;;;;;-0.11;95.59;98143.93;1616802;88;20174;-75
2022/02/02 18:30:48;;;;;;;;;;;;;;;-0.11;95.72;98141.23;1591833;88;20167;-70
2022/02/02 18:33:18;;;;;;;;;;;;;;;-0.09;95.76;98149.05;1594060;87;20481;-77
2022/02/02 18:35:41;;;;;;;;;;;;;;;-0.10;95.80;98146.89;1619491;88;21213;-70
2022/02/02 18:42:04;;;;;;;;;;;;;;;-0.10;95.92;98154.17;1608711;87;20208;-70
2022/02/02 18:43:45;;;;;;;;;;;;;;;-0.11;95.98;98152.56;1646029;86;20146;-65
2022/02/02 18:46:24;;;;;;;;;;;;;;;-0.11;96.10;98147.17;1632684;86;20618;-69
2022/02/02 18:48:36;;;;;;;;;;;;;;;-0.12;96.17;98149.06;1631387;86;21506;-68
2022/02/02 18:59:10;;;;;;;;;;;;;;;-0.10;96.00;98150.94;1654155;86;20145;-66
2022/02/02 19:01:38;;;;;;;;;;;;;;;-0.10;96.00;98154.98;1651179;86;21886;-67
2022/02/02 19:07:20;;;;;;;;;;;;;;;-0.10;95.98;98153.64;1654084;86;20181;-72
2022/02/02 19:15:37;;;;;;;;;;;;;;;-0.09;96.43;98161.19;1646926;87;20586;-67
2022/02/02 19:53:25;;;;;;;;;;;;;;;-0.03;97.24;98179.76;1650214;87;20428;-71
2022/02/02 20:04:20;;;;;;;;;;;;;;;-0.03;97.30;98181.11;1650035;87;20173;-68
2022/02/02 20:06:24;;;;;;;;;;;;;;;-0.04;97.19;98176.80;1633283;87;20185;-68
2022/02/02 20:08:47;;;;;;;;;;;;;;;-0.04;97.12;98171.94;1648015;86;21789;-73
2022/02/02 20:11:16;;;;;;;;;;;;;;;-0.03;97.01;98173.02;1630042;87;20956;-73
2022/02/02 20:13:39;;;;;;;;;;;;;;;-0.05;96.93;98175.19;1649493;86;20184;-74
2022/02/02 20:16:05;;;;;;;;;;;;;;;-0.04;96.91;98174.09;1631207;87;20177;-73
2022/02/02 20:18:38;;;;;;;;;;;;;;;-0.04;96.89;98177.34;1649881;86;20125;-72
2022/02/02 20:21:05;;;;;;;;;;;;;;;-0.05;96.87;98178.42;1649579;86;21142;-68
2022/02/02 20:23:30;;;;;;;;;;;;;;;-0.07;96.88;98185.45;1649651;86;20168;-69
2022/02/02 20:25:56;;;;;;;;;;;;;;;-0.10;97.04;98183.31;1655752;85;20475;-69
2022/02/02 20:28:23;;;;;;;;;;;;;;;-0.13;97.29;98182.52;1682349;85;20181;-69
2022/02/02 20:30:49;;;;;;;;;;;;;;;-0.16;97.39;98174.98;1682291;84;20153;-69
2022/02/02 20:33:15;;;;;;;;;;;;;;;-0.16;97.48;98174.98;1658879;85;21147;-71
2022/02/02 20:35:41;;;;;;;;;;;;;;;-0.19;97.46;98175.54;1649716;87;20481;-70
2022/02/02 20:38:08;;;;;;;;;;;;;;;-0.22;97.46;98174.75;1649550;87;20159;-70
2022/02/02 20:40:34;;;;;;;;;;;;;;;-0.24;97.47;98177.45;1647491;86;20171;-68
2022/02/02 20:43:10;;;;;;;;;;;;;;;-0.28;97.50;98178.56;1642342;87;20177;-70
2022/02/02 21:04:54;;;;;;;;;;;;;;;-0.29;97.76;98196.36;1646219;87;20226;-73
2022/02/02 21:10:02;;;;;;;;;;;;;;;-0.30;97.55;98206.34;1642372;87;20177;-72
2022/02/02 21:15:18;;;;;;;;;;;;;;;-0.29;97.44;98207.16;1642177;87;20434;-72
2022/02/02 21:18:07;;;;;;;;;;;;;;;-0.28;97.32;98208.77;1633172;88;20141;-77
2022/02/02 21:20:33;;;;;;;;;;;;;;;-0.28;97.20;98214.16;1632723;86;20599;-74
2022/02/02 21:23:04;;;;;;;;;;;;;;;-0.29;97.16;98217.94;1633144;86;20181;-73
2022/02/02 21:25:35;;;;;;;;;;;;;;;-0.31;97.16;98214.71;1632603;88;21178;-74
2022/02/02 21:27:58;;;;;;;;;;;;;;;-0.33;97.27;98216.34;1633121;86;20161;-75
2022/02/02 21:30:25;;;;;;;;;;;;;;;-0.34;97.34;98224.16;1633312;88;20151;-77
2022/02/02 21:32:52;;;;;;;;;;;;;;;-0.36;97.38;98225.78;1612687;88;20132;-76
2022/02/02 21:35:19;;;;;;;;;;;;;;;-0.37;97.52;98226.06;1607303;89;20201;-75
2022/02/02 21:37:48;;;;;;;;;;;;;;;-0.37;97.59;98219.32;1607100;89;21172;-72
2022/02/02 21:40:26;;;;;;;;;;;;;;;-0.38;97.65;98225.80;1607196;89;20128;-74
2022/02/02 21:42:52;;;;;;;;;;;;;;;-0.38;97.77;98220.41;1607190;89;20184;-76
2022/02/02 21:45:18;;;;;;;;;;;;;;;-0.38;97.87;98223.10;1607116;89;20148;-73
2022/02/02 21:47:45;;;;;;;;;;;;;;;-0.36;97.82;98227.67;1607111;89;20169;-73
2022/02/02 21:50:15;;;;;;;;;;;;;;;-0.36;97.71;98229.02;1607214;89;20981;-76
2022/02/02 21:52:39;;;;;;;;;;;;;;;-0.34;97.55;98239.80;1607656;88;20160;-74
2022/02/02 21:55:06;;;;;;;;;;;;;;;-0.31;97.29;98242.48;1607201;89;20485;-73
2022/02/02 21:57:33;;;;;;;;;;;;;;;-0.29;96.88;98238.97;1607114;89;20464;-73
2022/02/02 22:00:00;;;;;;;;;;;;;;;-0.26;96.70;98243.81;1607100;89;20502;-74
2022/02/02 22:02:28;;;;;;;;;;;;;;;-0.24;96.40;98248.39;1607477;87;21141;-73
2022/02/02 22:04:54;;;;;;;;;;;;;;;-0.22;96.18;98250.27;1607260;89;20510;-77
2022/02/02 22:07:20;;;;;;;;;;;;;;;-0.22;96.04;98241.37;1607237;89;20156;-73
2022/02/02 22:09:49;;;;;;;;;;;;;;;-0.19;95.94;98247.02;1607129;89;20137;-73
2022/02/02 22:12:14;;;;;;;;;;;;;;;-0.18;95.92;98248.63;1607309;89;20183;-71
2022/02/02 22:14:40;;;;;;;;;;;;;;;-0.18;95.82;98251.33;1607186;89;21800;-75
2022/02/02 22:17:07;;;;;;;;;;;;;;;-0.18;95.80;98251.33;1622444;88;20110;-75
2022/02/02 22:19:35;;;;;;;;;;;;;;;-0.19;95.76;98251.06;1633848;88;20485;-75
2022/02/02 22:22:02;;;;;;;;;;;;;;;-0.20;95.85;98256.19;1633716;88;20182;-75
2022/02/02 22:24:28;;;;;;;;;;;;;;;-0.20;95.92;98258.08;1633683;88;20142;-75
2022/02/02 22:26:55;;;;;;;;;;;;;;;-0.23;95.93;98258.09;1633472;88;21168;-75
2022/02/02 22:29:21;;;;;;;;;;;;;;;-0.23;96.11;98258.09;1633545;88;20102;-76
2022/02/02 22:31:47;;;;;;;;;;;;;;;-0.24;96.16;98249.73;1633519;86;20174;-77
2022/02/02 22:34:14;;;;;;;;;;;;;;;-0.25;96.20;98260.26;1633620;88;20187;-76
2022/02/02 22:36:41;;;;;;;;;;;;;;;-0.26;96.31;98265.92;1633681;88;20182;-76
2022/02/02 22:39:10;;;;;;;;;;;;;;;-0.26;96.36;98272.13;1633679;88;21249;-75
2022/02/02 22:41:36;;;;;;;;;;;;;;;-0.27;96.43;98267.02;1633653;88;20149;-75
2022/02/02 22:44:07;;;;;;;;;;;;;;;-0.29;96.58;98265.94;1634007;88;20154;-73
2022/02/02 22:46:31;;;;;;;;;;;;;;;-0.31;96.76;98274.84;1633341;87;20442;-74
2022/02/02 22:48:57;;;;;;;;;;;;;;;-0.32;96.89;98278.63;1634611;88;20127;-74
2022/02/02 22:51:23;;;;;;;;;;;;;;;-0.34;96.90;98279.44;1636358;87;22153;-79
2022/02/02 22:53:50;;;;;;;;;;;;;;;-0.32;97.07;98281.86;1634932;88;20146;-79
2022/02/02 22:56:16;;;;;;;;;;;;;;;-0.33;97.06;98285.10;1635247;88;20143;-76
2022/02/02 22:58:47;;;;;;;;;;;;;;;-0.32;97.14;98292.11;1653938;87;20197;-76
2022/02/02 23:01:11;;;;;;;;;;;;;;;-0.30;97.20;98287.78;1627450;87;20175;-77
2022/02/02 23:03:38;;;;;;;;;;;;;;;-0.28;97.17;98287.78;1629950;88;21189;-75
2022/02/02 23:06:05;;;;;;;;;;;;;;;-0.26;96.95;98296.41;1629411;88;20154;-80
2022/02/02 23:08:33;;;;;;;;;;;;;;;-0.27;96.93;98298.83;1627597;88;20488;-76
2022/02/02 23:11:00;;;;;;;;;;;;;;;-0.25;96.96;98303.41;1627375;88;20175;-72
2022/02/02 23:13:30;;;;;;;;;;;;;;;-0.23;97.28;98301.78;1627299;88;20151;-71
2022/02/02 23:16:05;;;;;;;;;;;;;;;-0.21;97.11;98309.06;1627367;88;21142;-73
2022/02/02 23:18:31;;;;;;;;;;;;;;;-0.21;97.08;98300.97;1626779;87;20149;-70